Time;durP1;ratioP1;P1;durP2;ratioP2;P2;SDS_P1;SDS_P2;PMS_P1;PMS_P2;Temp;Humidity;BMP_temperature;BMP_pressure;BME280_temperature;BME280_humidity;BME280_pressure;Samples;Min_cycle;Max_cycle;Signal;HPM_P1;HPM_P2
2023/01/13 00:02:06;;;;;;;2.17;0.80;;;19.40;73.00;;;;;;7402372;19;19915;-67
2023/01/13 00:04:35;;;;;;;2.90;1.05;;;19.40;73.00;;;;;;7404450;19;19923;-67
2023/01/13 00:07:07;;;;;;;2.70;0.65;;;19.40;73.00;;;;;;7402412;19;19919;-67
2023/01/13 00:09:35;;;;;;;1.80;0.30;;;19.30;73.00;;;;;;7402509;19;19918;-67
2023/01/13 00:12:05;;;;;;;2.95;0.50;;;19.30;73.00;;;;;;7402484;19;19914;-68
2023/01/13 00:14:35;;;;;;;2.60;0.77;;;19.30;73.00;;;;;;7402428;19;19911;-68
2023/01/13 00:17:05;;;;;;;2.75;0.73;;;19.20;73.00;;;;;;7402722;19;19921;-67
2023/01/13 00:19:34;;;;;;;2.83;0.85;;;19.20;73.00;;;;;;7402158;19;19919;-67
2023/01/13 00:22:06;;;;;;;2.42;0.77;;;19.20;73.00;;;;;;7401970;19;19921;-67
2023/01/13 00:24:35;;;;;;;3.22;0.90;;;19.20;73.00;;;;;;7401673;19;19921;-67
2023/01/13 00:27:03;;;;;;;3.45;0.30;;;19.20;73.60;;;;;;7405567;19;20005;-69
2023/01/13 00:29:32;;;;;;;2.25;0.82;;;19.10;73.00;;;;;;7401899;19;19922;-68
2023/01/13 00:32:01;;;;;;;2.92;0.75;;;19.10;73.10;;;;;;7404380;19;19925;-68
2023/01/13 00:34:30;;;;;;;2.17;1.23;;;19.10;73.10;;;;;;7400496;19;19925;-67
2023/01/13 00:37:00;;;;;;;3.53;0.93;;;19.10;73.10;;;;;;7401358;19;19911;-67
2023/01/13 00:39:32;;;;;;;3.55;0.90;;;19.10;73.10;;;;;;7401955;19;20010;-67
2023/01/13 00:44:42;;;;;;;2.50;0.20;;;19.00;73.10;;;;;;7401754;19;20301;-67
2023/01/13 00:47:11;;;;;;;4.20;0.30;;;19.00;73.10;;;;;;7402001;19;20329;-67
2023/01/13 00:49:40;;;;;;;3.70;0.68;;;19.00;73.10;;;;;;7403006;19;20327;-67
2023/01/13 00:52:08;;;;;;;2.72;0.20;;;19.00;73.10;;;;;;7404962;19;20251;-67
2023/01/13 00:54:40;;;;;;;4.47;0.45;;;18.90;73.10;;;;;;7401372;19;20400;-67
2023/01/13 00:57:09;;;;;;;3.40;0.85;;;18.90;73.10;;;;;;7400978;19;19930;-67
2023/01/13 00:59:38;;;;;;;3.92;0.47;;;18.90;73.10;;;;;;7402082;19;19984;-67
2023/01/13 01:02:07;;;;;;;3.55;0.50;;;18.90;73.10;;;;;;7402919;19;19926;-67
2023/01/13 01:04:35;;;;;;;3.22;0.70;;;18.80;73.00;;;;;;7401156;19;19922;-67
2023/01/13 01:07:04;;;;;;;3.03;0.77;;;18.80;73.10;;;;;;7409462;19;19929;-67
2023/01/13 01:09:34;;;;;;;4.45;0.50;;;18.80;73.00;;;;;;7407366;19;20263;-67
2023/01/13 01:12:06;;;;;;;4.13;0.50;;;18.80;73.00;;;;;;7408636;19;20333;-67
2023/01/13 01:14:47;;;;;;;3.95;0.35;;;18.80;73.00;;;;;;7409162;19;20018;-67
2023/01/13 01:17:16;;;;;;;3.33;1.00;;;18.80;73.00;;;;;;7409902;19;20460;-67
2023/01/13 01:19:45;;;;;;;3.78;0.30;;;18.80;73.00;;;;;;7408590;19;20268;-67
2023/01/13 01:22:13;;;;;;;4.22;1.02;;;18.80;73.00;;;;;;7409456;19;19919;-68
2023/01/13 01:24:42;;;;;;;5.30;0.70;;;18.80;73.00;;;;;;7407187;19;19923;-68
2023/01/13 01:27:14;;;;;;;4.70;0.65;;;18.70;72.90;;;;;;7409480;19;19915;-67
2023/01/13 01:29:43;;;;;;;4.55;0.70;;;18.70;72.90;;;;;;7411064;19;20281;-67
2023/01/13 01:32:12;;;;;;;4.55;0.60;;;18.70;72.90;;;;;;7411159;19;19922;-67
2023/01/13 01:34:41;;;;;;;3.58;0.30;;;18.70;72.90;;;;;;7405419;19;20244;-67
2023/01/13 01:37:10;;;;;;;4.40;1.60;;;18.70;72.90;;;;;;7405821;19;19929;-67
2023/01/13 01:39:39;;;;;;;4.85;0.70;;;18.60;72.80;;;;;;7408047;19;19966;-67
2023/01/13 01:45:00;;;;;;;5.57;1.30;;;18.60;72.80;;;;;;7406970;19;19915;-67
2023/01/13 01:47:31;;;;;;;3.92;1.25;;;18.60;72.80;;;;;;7406355;19;19914;-67
2023/01/13 01:50:00;;;;;;;3.97;1.40;;;18.60;72.80;;;;;;7408761;19;19985;-67
2023/01/13 01:52:33;;;;;;;4.70;0.80;;;18.60;73.10;;;;;;7406159;19;19914;-67
2023/01/13 01:55:06;;;;;;;5.38;1.20;;;18.60;72.80;;;;;;7405027;19;19921;-67
2023/01/13 01:57:47;;;;;;;4.53;0.50;;;18.60;72.80;;;;;;7409411;19;19925;-67
2023/01/13 02:00:21;;;;;;;4.07;1.40;;;18.60;72.80;;;;;;7406968;19;19918;-67
2023/01/13 02:02:53;;;;;;;5.70;0.60;;;18.60;72.80;;;;;;7408602;19;20262;-67
2023/01/13 02:05:22;;;;;;;5.53;1.23;;;18.50;72.70;;;;;;7406192;19;19922;-67
2023/01/13 02:07:53;;;;;;;;;;;18.50;72.70;;;;;;7408625;19;19913;-67
2023/01/13 02:10:26;;;;;;;7.13;1.15;;;18.50;72.50;;;;;;7406068;19;19990;-67
2023/01/13 02:12:57;;;;;;;2.78;0.57;;;18.50;72.70;;;;;;7405985;19;19918;-67
2023/01/13 02:15:33;;;;;;;6.68;1.67;;;18.50;72.70;;;;;;7404269;19;19915;-67
2023/01/13 02:18:15;;;;;;;5.50;1.10;;;18.50;72.60;;;;;;7405403;19;19918;-67
2023/01/13 02:21:28;;;;;;;8.15;1.90;;;18.50;72.60;;;;;;7409533;19;19911;-67
2023/01/13 02:27:33;;;;;;;4.50;0.90;;;18.50;72.50;;;;;;7408206;19;19970;-68
2023/01/13 02:33:21;;;;;;;5.55;0.60;;;18.40;72.40;;;;;;7409057;19;20256;-66
2023/01/13 02:35:54;;;;;;;6.88;1.52;;;18.40;72.50;;;;;;7404014;19;19922;-67
2023/01/13 02:38:32;;;;;;;5.10;1.27;;;18.40;72.50;;;;;;7403479;19;19918;-67
2023/01/13 02:44:05;;;;;;;3.58;1.08;;;18.40;72.50;;;;;;7405875;19;19933;-66
2023/01/13 02:46:48;;;;;;;4.20;0.50;;;18.40;72.40;;;;;;7408288;19;20245;-67
2023/01/13 02:49:25;;;;;;;6.45;0.75;;;18.40;72.40;;;;;;7408328;19;19918;-67
2023/01/13 02:51:57;;;;;;;5.10;1.60;;;18.40;72.40;;;;;;7398403;19;20439;-68
2023/01/13 02:54:30;;;;;;;5.97;0.80;;;18.30;72.30;;;;;;7404881;19;19930;-67
2023/01/13 02:57:01;;;;;;;7.28;1.10;;;18.30;72.30;;;;;;7403025;19;19911;-67
2023/01/13 02:59:32;;;;;;;4.78;0.55;;;18.30;72.30;;;;;;7406891;19;19928;-67
2023/01/13 03:02:05;;;;;;;5.68;1.55;;;18.30;72.20;;;;;;7399252;19;19925;-67
2023/01/13 03:04:52;;;;;;;6.93;1.02;;;18.30;72.20;;;;;;7407102;19;19918;-67
2023/01/13 03:08:14;;;;;;;5.60;1.48;;;18.30;72.20;;;;;;7404565;19;19927;-67
2023/01/13 03:10:55;;;;;;;5.10;0.93;;;18.30;72.10;;;;;;7404645;19;19922;-67
2023/01/13 03:13:45;;;;;;;6.38;0.73;;;18.30;72.20;;;;;;7403477;19;20332;-67
2023/01/13 03:16:22;;;;;;;5.70;1.02;;;18.30;72.20;;;;;;7402066;19;19911;-67
2023/01/13 03:19:03;;;;;;;7.80;0.77;;;18.30;72.10;;;;;;7404540;19;19931;-68
2023/01/13 03:21:37;;;;;;;5.30;1.45;;;18.30;72.10;;;;;;7405406;19;19952;-68
2023/01/13 03:24:13;;;;;;;8.15;1.10;;;18.30;72.10;;;;;;7404762;19;19922;-68
2023/01/13 03:26:44;;;;;;;;;;;18.20;72.10;;;;;;7409429;19;19943;-67
2023/01/13 03:29:19;;;;;;;5.75;1.50;;;18.30;72.00;;;;;;7401286;19;19926;-67
2023/01/13 03:31:55;;;;;;;5.55;1.55;;;18.20;72.10;;;;;;7407064;19;19926;-67
2023/01/13 03:34:28;;;;;;;;;;;18.20;72.00;;;;;;7405511;19;19926;-67
2023/01/13 03:36:59;;;;;;;6.85;1.42;;;18.20;71.90;;;;;;7402932;19;19924;-67
2023/01/13 03:39:33;;;;;;;4.30;1.30;;;18.20;72.00;;;;;;7406429;19;19929;-67
2023/01/13 03:42:07;;;;;;;4.97;1.02;;;18.20;72.00;;;;;;7402561;19;20253;-67
2023/01/13 03:44:38;;;;;;;6.15;1.27;;;18.20;72.50;;;;;;7406933;19;19990;-67
2023/01/13 03:47:14;;;;;;;5.30;1.17;;;18.20;71.90;;;;;;7402993;19;19918;-66
2023/01/13 03:49:53;;;;;;;5.72;1.85;;;18.20;71.90;;;;;;7403263;19;19918;-67
2023/01/13 03:52:26;;;;;;;8.38;1.35;;;18.20;71.90;;;;;;7403093;19;19919;-67
2023/01/13 03:55:00;;;;;;;7.30;1.50;;;18.20;71.90;;;;;;7402140;19;19925;-67
2023/01/13 03:57:34;;;;;;;5.22;1.65;;;18.20;71.80;;;;;;7403724;19;19917;-66
2023/01/13 04:00:08;;;;;;;7.07;1.70;;;18.20;71.80;;;;;;7406322;19;19907;-67
2023/01/13 04:02:48;;;;;;;6.78;1.02;;;18.20;71.90;;;;;;7406476;19;20393;-67
2023/01/13 04:05:21;;;;;;;5.85;1.48;;;18.10;71.80;;;;;;7399933;19;19918;-67
2023/01/13 04:07:56;;;;;;;7.18;0.63;;;18.20;71.80;;;;;;7395201;19;20345;-67
2023/01/13 04:10:30;;;;;;;6.47;1.77;;;18.20;71.80;;;;;;7406566;19;19922;-66
2023/01/13 04:13:04;;;;;;;6.63;1.10;;;18.20;71.70;;;;;;7402805;19;19919;-68
2023/01/13 04:15:39;;;;;;;7.32;0.85;;;18.10;71.70;;;;;;7405519;19;19929;-67
2023/01/13 04:18:16;;;;;;;;;;;18.10;71.60;;;;;;7406738;19;19919;-67
2023/01/13 04:20:50;;;;;;;4.80;1.33;;;18.10;71.60;;;;;;7403646;19;19925;-67
2023/01/13 04:23:20;;;;;;;5.78;1.85;;;18.10;71.70;;;;;;7403246;19;19925;-67
2023/01/13 04:25:49;;;;;;;;;;;18.10;71.60;;;;;;7404828;19;19921;-67
2023/01/13 04:28:19;;;;;;;5.13;0.95;;;18.10;71.60;;;;;;7400617;19;19919;-67
2023/01/13 04:30:49;;;;;;;5.78;0.82;;;18.10;71.60;;;;;;7405547;19;19926;-67
2023/01/13 04:33:19;;;;;;;5.00;1.30;;;18.00;71.60;;;;;;7401851;19;19917;-67
2023/01/13 04:35:51;;;;;;;7.95;1.58;;;18.00;71.50;;;;;;7403176;19;19925;-67
2023/01/13 04:38:22;;;;;;;6.00;0.75;;;18.00;71.50;;;;;;7400070;19;20258;-66
2023/01/13 04:40:51;;;;;;;8.40;1.73;;;18.00;71.50;;;;;;7407149;19;19922;-67
2023/01/13 04:43:20;;;;;;;5.75;1.65;;;18.00;71.60;;;;;;7406636;19;19915;-67
2023/01/13 04:45:49;;;;;;;4.78;1.55;;;18.00;71.50;;;;;;7408853;19;19914;-67
2023/01/13 04:48:18;;;;;;;6.93;1.10;;;18.00;71.40;;;;;;7407914;19;19929;-67
2023/01/13 04:50:49;;;;;;;6.90;1.20;;;18.00;71.40;;;;;;7408180;19;19914;-66
2023/01/13 04:53:18;;;;;;;4.90;1.85;;;18.00;71.40;;;;;;7411263;19;19919;-67
2023/01/13 04:55:48;;;;;;;6.57;1.42;;;18.00;71.40;;;;;;7406304;19;19946;-66
2023/01/13 04:58:17;;;;;;;6.63;1.73;;;18.00;71.40;;;;;;7407817;19;19944;-66
2023/01/13 05:00:46;;;;;;;7.93;1.10;;;18.00;71.30;;;;;;7407771;19;19915;-66
2023/01/13 05:03:15;;;;;;;6.28;0.98;;;18.00;71.30;;;;;;7408974;19;19921;-67
2023/01/13 05:05:44;;;;;;;3.90;0.60;;;18.00;71.90;;;;;;7407076;19;19982;-66
2023/01/13 05:08:15;;;;;;;5.35;0.90;;;18.00;71.30;;;;;;7409196;19;20320;-67
2023/01/13 05:10:44;;;;;;;7.95;1.27;;;18.00;71.30;;;;;;7411562;19;20289;-67
2023/01/13 05:18:47;;;;;;;5.57;0.88;;;18.00;71.20;;;;;;7404348;19;19915;-67
2023/01/13 05:26:41;;;;;;;7.97;1.00;;;18.00;71.10;;;;;;7408513;19;20356;-67
2023/01/13 05:29:10;;;;;;;5.88;1.40;;;17.90;71.00;;;;;;7408921;19;19918;-67
2023/01/13 05:31:39;;;;;;;7.03;1.90;;;17.90;71.10;;;;;;7409027;19;19923;-66
2023/01/13 05:34:07;;;;;;;4.85;1.25;;;17.90;71.00;;;;;;7409136;19;19922;-67
2023/01/13 05:36:36;;;;;;;5.68;1.10;;;17.90;71.00;;;;;;7407337;19;19919;-67
2023/01/13 05:39:08;;;;;;;7.22;1.52;;;17.90;70.90;;;;;;7407592;19;20337;-67
2023/01/13 05:44:19;;;;;;;6.75;1.13;;;17.90;70.90;;;;;;7409615;19;19990;-66
2023/01/13 05:46:48;;;;;;;5.50;1.67;;;17.90;70.90;;;;;;7406437;19;19919;-66
2023/01/13 05:49:17;;;;;;;5.13;1.65;;;17.90;71.40;;;;;;7410927;19;19922;-67
2023/01/13 05:51:45;;;;;;;7.45;1.67;;;17.90;70.80;;;;;;7404700;19;19914;-67
2023/01/13 05:54:17;;;;;;;5.78;1.00;;;17.90;70.80;;;;;;7407013;19;19921;-67
2023/01/13 05:56:46;;;;;;;7.85;1.38;;;17.90;70.80;;;;;;7404175;19;19974;-67
2023/01/13 05:59:15;;;;;;;5.82;1.40;;;17.90;70.80;;;;;;7406328;19;19918;-67
2023/01/13 06:01:43;;;;;;;6.70;1.67;;;17.90;70.80;;;;;;7410344;19;19918;-67
2023/01/13 06:04:12;;;;;;;6.55;1.63;;;17.90;70.70;;;;;;7406325;19;19910;-67
2023/01/13 06:06:42;;;;;;;5.70;1.90;;;17.90;71.20;;;;;;7406310;19;19970;-67
2023/01/13 06:09:11;;;;;;;6.57;0.80;;;17.90;70.60;;;;;;7408425;19;19933;-67
2023/01/13 06:11:42;;;;;;;7.38;1.88;;;17.90;70.50;;;;;;7407406;19;19921;-68
2023/01/13 06:14:11;;;;;;;5.75;0.90;;;18.00;70.40;;;;;;7405768;19;19982;-67
2023/01/13 06:16:40;;;;;;;4.80;1.40;;;18.00;70.40;;;;;;7404414;19;19997;-66
2023/01/13 06:19:11;;;;;;;5.75;1.50;;;18.10;70.30;;;;;;7406199;19;19915;-67
2023/01/13 06:21:40;;;;;;;5.28;0.75;;;18.10;70.20;;;;;;7405912;19;20006;-67
2023/01/13 06:24:10;;;;;;;4.07;1.70;;;18.20;70.00;;;;;;7409205;19;19944;-67
2023/01/13 06:26:43;;;;;;;5.93;0.80;;;18.30;70.00;;;;;;7402199;19;19930;-67
2023/01/13 06:29:15;;;;;;;4.15;0.68;;;18.30;69.70;;;;;;7404221;19;19952;-67
2023/01/13 06:31:44;;;;;;;4.32;1.38;;;18.40;70.20;;;;;;7406165;19;19977;-67
2023/01/13 06:34:16;;;;;;;4.60;1.23;;;18.50;69.50;;;;;;7406476;19;19929;-67
2023/01/13 06:36:49;;;;;;;5.35;1.98;;;18.60;69.30;;;;;;7405474;19;19921;-66
2023/01/13 06:39:21;;;;;;;6.53;1.42;;;18.60;69.20;;;;;;7406661;19;20341;-66
2023/01/13 06:44:37;;;;;;;5.13;1.65;;;18.60;69.00;;;;;;7407974;19;19926;-67
2023/01/13 06:47:06;;;;;;;5.60;1.58;;;18.70;69.00;;;;;;7409360;19;19929;-66
2023/01/13 06:49:35;;;;;;;5.30;1.42;;;18.70;69.00;;;;;;7405295;19;19925;-67
2023/01/13 06:52:05;;;;;;;4.05;1.05;;;18.70;68.90;;;;;;7407391;19;19918;-67
2023/01/13 06:54:33;;;;;;;7.15;1.52;;;18.70;68.90;;;;;;7404727;19;19914;-67
2023/01/13 06:57:05;;;;;;;5.03;1.25;;;18.60;68.80;;;;;;7402836;19;19939;-67
2023/01/13 06:59:35;;;;;;;5.40;1.55;;;18.60;68.80;;;;;;7405330;19;19926;-67
2023/01/13 07:02:05;;;;;;;6.78;1.77;;;18.60;68.80;;;;;;7405136;19;19922;-67
2023/01/13 07:04:33;;;;;;;6.05;1.88;;;18.60;68.80;;;;;;7403359;19;19922;-66
2023/01/13 07:07:02;;;;;;;3.85;0.80;;;18.60;68.80;;;;;;7406647;19;19923;-67
2023/01/13 07:09:31;;;;;;;5.10;0.93;;;18.60;68.80;;;;;;7404253;19;20471;-72
2023/01/13 07:12:00;;;;;;;5.82;1.30;;;18.60;68.80;;;;;;7408524;19;20369;-69
2023/01/13 07:17:13;;;;;;;5.80;1.60;;;18.50;68.80;;;;;;7406852;19;19931;-71
2023/01/13 07:19:42;;;;;;;6.90;1.73;;;18.50;68.90;;;;;;7404294;19;19967;-67
2023/01/13 07:22:11;;;;;;;5.32;1.40;;;18.50;69.00;;;;;;7402969;19;19931;-68
2023/01/13 07:24:40;;;;;;;5.95;1.95;;;18.50;69.00;;;;;;7404195;19;19978;-69
2023/01/13 07:27:09;;;;;;;6.28;1.10;;;18.50;69.00;;;;;;7406518;19;19931;-67
2023/01/13 07:29:40;;;;;;;5.13;0.80;;;18.40;69.00;;;;;;7406468;19;20254;-69
2023/01/13 07:32:09;;;;;;;5.72;1.40;;;18.40;69.00;;;;;;7403909;19;19939;-68
2023/01/13 07:34:38;;;;;;;3.97;1.40;;;18.40;69.00;;;;;;7403356;19;19917;-68
2023/01/13 07:37:07;;;;;;;4.25;1.63;;;18.40;69.00;;;;;;7401870;19;20341;-68
2023/01/13 07:39:53;;;;;;;5.15;0.60;;;18.30;68.90;;;;;;7403090;19;20360;-69
2023/01/13 07:45:09;;;;;;;7.95;1.40;;;18.30;69.00;;;;;;7403379;19;20345;-68
2023/01/13 07:47:38;;;;;;;4.78;1.35;;;18.30;69.00;;;;;;7404284;19;19923;-68
2023/01/13 07:50:08;;;;;;;4.18;0.60;;;18.30;69.10;;;;;;7402773;19;21439;-69
2023/01/13 07:52:37;;;;;;;5.50;1.95;;;18.20;69.10;;;;;;7405112;19;19918;-68
2023/01/13 07:55:06;;;;;;;5.40;1.10;;;18.20;69.10;;;;;;7404601;19;19922;-68
2023/01/13 07:57:35;;;;;;;;;;;18.20;69.10;;;;;;7399924;19;19919;-69
2023/01/13 08:00:08;;;;;;;5.95;1.65;;;18.20;69.10;;;;;;7401363;19;19974;-69
2023/01/13 08:02:37;;;;;;;5.82;1.38;;;18.10;69.20;;;;;;7401817;19;19926;-69
2023/01/13 08:05:06;;;;;;;5.38;0.70;;;18.10;69.20;;;;;;7401342;19;19922;-68
2023/01/13 08:07:35;;;;;;;6.22;1.52;;;18.10;69.20;;;;;;7403455;19;19922;-68
2023/01/13 08:10:04;;;;;;;5.32;1.40;;;18.10;69.20;;;;;;7403647;19;19919;-68
2023/01/13 08:15:33;;;;;;;5.95;1.63;;;18.00;69.20;;;;;;7404398;19;19919;-68
2023/01/13 08:18:02;;;;;;;5.15;1.10;;;18.00;69.20;;;;;;7405750;19;19923;-68
2023/01/13 08:20:31;;;;;;;5.65;1.70;;;18.00;69.30;;;;;;7411597;19;19926;-68
2023/01/13 08:23:01;;;;;;;3.88;1.30;;;18.00;69.30;;;;;;7409680;19;19967;-69
2023/01/13 08:25:32;;;;;;;4.18;1.20;;;18.00;69.40;;;;;;7410240;19;19918;-68
2023/01/13 08:28:01;;;;;;;4.18;1.33;;;18.00;69.30;;;;;;7410264;19;20022;-69
2023/01/13 08:30:33;;;;;;;6.28;0.80;;;18.00;69.40;;;;;;7409161;19;20310;-68
2023/01/13 08:33:02;;;;;;;3.97;1.23;;;18.00;69.30;;;;;;7411626;19;19922;-68
2023/01/13 08:35:31;;;;;;;6.07;1.52;;;17.90;69.30;;;;;;7411148;19;19919;-68
2023/01/13 08:38:00;;;;;;;3.50;1.27;;;17.90;69.30;;;;;;7405505;19;19935;-68
2023/01/13 08:40:29;;;;;;;5.72;1.67;;;17.90;69.20;;;;;;7408470;19;19943;-68
2023/01/13 08:42:58;;;;;;;;;;;18.00;69.20;;;;;;7409499;19;21133;-68
2023/01/13 08:45:27;;;;;;;6.35;1.40;;;18.00;69.20;;;;;;7409854;19;19923;-69
2023/01/13 08:47:59;;;;;;;4.25;0.80;;;18.00;69.10;;;;;;7409529;19;19970;-68
2023/01/13 08:50:28;;;;;;;4.40;1.35;;;18.00;69.00;;;;;;7409773;19;19922;-68
2023/01/13 08:52:57;;;;;;;3.90;1.40;;;18.10;69.00;;;;;;7407491;19;19930;-68
2023/01/13 08:55:26;;;;;;;4.32;1.02;;;18.20;68.90;;;;;;7407970;19;19929;-69
2023/01/13 08:57:55;;;;;;;4.03;1.88;;;18.20;68.80;;;;;;7407452;19;19928;-68
2023/01/13 09:00:24;;;;;;;3.20;0.95;;;18.30;68.60;;;;;;7407736;19;19914;-68
2023/01/13 09:02:53;;;;;;;3.17;1.25;;;18.40;68.50;;;;;;7407593;19;19919;-68
2023/01/13 09:05:25;;;;;;;5.80;1.10;;;18.40;68.30;;;;;;7407302;19;19919;-68
2023/01/13 09:07:53;;;;;;;3.60;0.52;;;18.50;68.20;;;;;;7410013;19;20340;-68
2023/01/13 09:10:22;;;;;;;5.45;0.88;;;18.60;68.10;;;;;;7404872;19;19931;-68
2023/01/13 09:15:32;;;;;;;4.28;1.30;;;18.70;67.80;;;;;;7407443;19;19914;-68
2023/01/13 09:18:01;;;;;;;3.53;1.05;;;18.70;67.70;;;;;;7406979;19;19926;-68
2023/01/13 09:20:33;;;;;;;4.72;1.30;;;18.80;67.80;;;;;;7410118;19;20374;-67
2023/01/13 09:23:02;;;;;;;4.32;1.73;;;18.80;67.70;;;;;;7407196;19;19929;-68
2023/01/13 09:25:31;;;;;;;4.22;0.57;;;18.80;67.70;;;;;;7404738;19;19922;-69
2023/01/13 09:28:00;;;;;;;5.25;0.70;;;18.80;67.70;;;;;;7405853;19;19919;-68
2023/01/13 09:30:29;;;;;;;4.63;1.48;;;18.80;67.70;;;;;;7410635;19;19935;-68
2023/01/13 09:35:43;;;;;;;5.80;0.60;;;18.70;67.60;;;;;;7407145;19;20269;-69
2023/01/13 09:38:12;;;;;;;4.53;1.50;;;18.70;68.30;;;;;;7407546;19;20054;-69
2023/01/13 09:40:42;;;;;;;4.18;0.60;;;18.70;67.70;;;;;;7411151;19;19947;-68
2023/01/13 09:46:42;;;;;;;3.97;0.65;;;18.70;67.70;;;;;;7406573;19;19925;-68
2023/01/13 09:48:57;;;;;;;5.57;1.50;;;18.60;67.70;;;;;;7405526;19;19918;-69
2023/01/13 09:51:35;;;;;;;5.15;1.60;;;18.70;67.70;;;;;;7406189;19;19919;-68
2023/01/13 09:54:10;;;;;;;4.78;1.60;;;18.60;67.70;;;;;;7408349;19;19926;-68
2023/01/13 09:56:39;;;;;;;4.53;1.88;;;18.60;67.70;;;;;;7405821;19;19919;-68
2023/01/13 09:59:12;;;;;;;6.28;2.75;;;18.50;67.80;;;;;;7405712;19;19915;-68
2023/01/13 10:01:50;;;;;;;5.60;1.70;;;18.50;67.80;;;;;;7406883;19;19926;-68
2023/01/13 10:04:19;;;;;;;4.78;1.55;;;18.50;67.80;;;;;;7406161;19;19922;-69
2023/01/13 10:06:55;;;;;;;5.40;2.00;;;18.50;67.80;;;;;;7405957;19;19910;-68
2023/01/13 10:09:31;;;;;;;3.63;0.98;;;18.40;67.90;;;;;;7410143;19;20267;-68
2023/01/13 10:14:50;;;;;;;5.53;1.10;;;18.40;67.90;;;;;;7408311;19;20246;-68
2023/01/13 10:17:27;;;;;;;5.95;1.15;;;18.40;68.00;;;;;;7408070;19;19914;-68
2023/01/13 10:20:03;;;;;;;5.60;1.33;;;18.30;68.00;;;;;;7408841;19;20284;-68
2023/01/13 10:22:54;;;;;;;6.18;1.83;;;18.30;68.60;;;;;;7405858;19;19925;-68
2023/01/13 10:25:34;;;;;;;5.45;1.15;;;18.30;68.00;;;;;;7407305;19;19922;-68
2023/01/13 10:28:09;;;;;;;5.18;1.88;;;18.30;68.20;;;;;;7409681;19;20300;-68
2023/01/13 10:30:43;;;;;;;5.35;2.00;;;18.20;68.20;;;;;;7404975;19;19982;-69
2023/01/13 10:33:16;;;;;;;5.43;1.58;;;18.20;68.20;;;;;;7405555;19;19947;-68
2023/01/13 10:35:57;;;;;;;4.70;0.80;;;18.20;68.30;;;;;;7404995;19;19915;-68
2023/01/13 10:38:31;;;;;;;5.95;1.90;;;18.20;68.40;;;;;;7402566;19;19928;-68
2023/01/13 10:41:02;;;;;;;6.82;1.55;;;18.20;68.40;;;;;;7405215;19;19914;-68
2023/01/13 10:43:32;;;;;;;6.32;2.13;;;18.10;68.40;;;;;;7404676;19;19921;-68
2023/01/13 10:46:07;;;;;;;4.35;0.80;;;18.10;68.40;;;;;;7405486;19;20522;-68
2023/01/13 10:48:40;;;;;;;4.55;2.10;;;18.10;68.50;;;;;;7405271;19;20341;-69
2023/01/13 10:51:19;;;;;;;5.22;1.48;;;18.10;68.50;;;;;;7404661;19;19929;-68
2023/01/13 10:54:11;;;;;;;3.80;1.30;;;18.10;68.50;;;;;;7404666;19;19918;-69
2023/01/13 10:56:41;;;;;;;6.38;1.98;;;18.00;68.50;;;;;;7404308;19;20127;-69
2023/01/13 10:59:25;;;;;;;5.10;0.90;;;18.00;68.50;;;;;;7404039;19;20425;-69
2023/01/13 11:02:00;;;;;;;6.35;1.67;;;18.10;68.60;;;;;;7408120;19;20363;-68
2023/01/13 11:04:32;;;;;;;6.15;0.90;;;18.00;68.60;;;;;;7404135;19;19915;-68
2023/01/13 11:07:02;;;;;;;5.18;1.25;;;18.00;68.60;;;;;;7404808;19;19910;-69
2023/01/13 11:09:35;;;;;;;5.25;1.73;;;18.00;68.60;;;;;;7406796;19;19982;-68
2023/01/13 11:12:04;;;;;;;3.15;1.15;;;18.00;68.60;;;;;;7404181;19;19943;-69
2023/01/13 11:14:39;;;;;;;5.00;1.73;;;18.00;68.60;;;;;;7404082;19;19936;-69
2023/01/13 11:17:34;;;;;;;4.53;1.45;;;18.00;68.60;;;;;;7403283;19;19918;-68
2023/01/13 11:20:14;;;;;;;4.45;0.70;;;18.00;68.50;;;;;;7404008;19;19910;-69
2023/01/13 11:22:48;;;;;;;5.25;1.38;;;18.10;69.10;;;;;;7403435;19;19920;-68
2023/01/13 11:25:24;;;;;;;5.90;1.00;;;18.20;68.40;;;;;;7408815;19;20298;-68
2023/01/13 11:28:00;;;;;;;5.57;1.52;;;18.20;68.20;;;;;;7407148;19;19925;-69
2023/01/13 11:30:36;;;;;;;4.72;1.10;;;18.20;68.20;;;;;;7403833;19;19914;-68
2023/01/13 11:33:28;;;;;;;4.55;1.25;;;18.30;68.20;;;;;;7403342;19;19941;-68
2023/01/13 11:36:06;;;;;;;5.00;2.15;;;18.40;68.10;;;;;;7402846;19;20343;-66
2023/01/13 11:38:42;;;;;;;5.90;1.77;;;18.50;68.00;;;;;;7404872;19;20044;-69
2023/01/13 11:41:23;;;;;;;4.72;0.80;;;18.60;67.90;;;;;;7403603;19;19918;-68
2023/01/13 11:44:00;;;;;;;5.90;1.70;;;18.70;67.80;;;;;;7406926;19;19922;-68
2023/01/13 11:46:31;;;;;;;3.80;1.63;;;18.70;67.80;;;;;;7402556;19;19922;-68
2023/01/13 11:49:02;;;;;;;6.75;1.40;;;18.70;67.60;;;;;;7405741;19;19925;-68
2023/01/13 11:51:38;;;;;;;6.68;2.13;;;18.80;67.60;;;;;;7403058;19;19925;-68
2023/01/13 11:54:23;;;;;;;5.07;1.52;;;18.80;67.60;;;;;;7402218;19;19978;-77
2023/01/13 11:57:26;;;;;;;3.67;1.60;;;18.80;67.60;;;;;;7402642;19;19932;-69
2023/01/13 12:00:28;;;;;;;3.90;0.65;;;18.80;67.70;;;;;;7402690;19;19914;-74
2023/01/13 12:03:11;;;;;;;4.18;0.60;;;18.80;67.70;;;;;;7402458;19;19914;-71
2023/01/13 12:05:43;;;;;;;4.18;1.23;;;18.80;67.80;;;;;;7402137;19;19922;-71
2023/01/13 12:08:22;;;;;;;5.53;1.20;;;18.80;67.80;;;;;;7402368;19;20356;-71
2023/01/13 12:11:07;;;;;;;4.28;1.85;;;18.80;67.90;;;;;;7404930;19;19921;-74
2023/01/13 12:13:49;;;;;;;5.35;0.88;;;18.80;67.90;;;;;;7403954;19;20425;-71
2023/01/13 12:16:25;;;;;;;4.35;1.00;;;18.80;68.20;;;;;;7402042;19;19915;-69
2023/01/13 12:19:12;;;;;;;5.15;1.40;;;18.70;68.00;;;;;;7399700;19;19930;-69
2023/01/13 12:21:57;;;;;;;4.50;1.40;;;18.70;68.10;;;;;;7406749;19;19914;-68
2023/01/13 12:24:31;;;;;;;5.25;0.80;;;18.70;68.70;;;;;;7401737;19;19911;-68
2023/01/13 12:27:05;;;;;;;2.92;0.63;;;18.70;68.10;;;;;;7406500;19;20271;-69
2023/01/13 12:29:38;;;;;;;5.65;1.20;;;18.70;68.20;;;;;;7401931;19;19994;-69
2023/01/13 12:32:13;;;;;;;5.88;1.52;;;18.60;68.20;;;;;;7400924;19;19911;-68
2023/01/13 12:35:04;;;;;;;4.30;1.63;;;18.60;68.30;;;;;;7401667;19;19929;-68
2023/01/13 12:37:41;;;;;;;4.13;0.77;;;18.60;68.30;;;;;;7400702;19;20317;-69
2023/01/13 12:40:32;;;;;;;4.43;1.92;;;18.60;68.30;;;;;;7401468;19;19921;-68
2023/01/13 12:45:54;;;;;;;5.32;1.40;;;18.50;68.40;;;;;;7401221;19;19917;-68
2023/01/13 12:48:51;;;;;;;4.32;0.63;;;18.50;68.40;;;;;;7401589;19;19927;-68
2023/01/13 12:51:24;;;;;;;3.42;0.60;;;18.40;68.40;;;;;;7400846;19;20263;-68
2023/01/13 12:53:54;;;;;;;5.28;1.20;;;18.40;68.40;;;;;;7401440;19;19927;-68
2023/01/13 12:56:41;;;;;;;3.63;1.13;;;18.40;68.40;;;;;;7400528;19;19907;-68
2023/01/13 12:59:35;;;;;;;5.80;1.75;;;18.40;68.50;;;;;;7399383;19;19921;-68
2023/01/13 13:02:29;;;;;;;5.53;0.98;;;18.30;68.40;;;;;;7407386;19;20225;-69
2023/01/13 13:04:59;;;;;;;;;;;18.30;68.50;;;;;;7410773;19;19965;-68
2023/01/13 13:07:39;;;;;;;5.50;1.50;;;18.30;68.40;;;;;;7407463;19;19910;-68
2023/01/13 13:10:19;;;;;;;5.47;1.17;;;18.30;68.60;;;;;;7407402;19;20347;-69
2023/01/13 13:15:41;;;;;;;5.22;1.50;;;18.20;68.60;;;;;;7407364;19;19918;-69
2023/01/13 13:18:31;;;;;;;4.57;0.88;;;18.20;68.70;;;;;;7406325;19;19919;-69
2023/01/13 13:21:07;;;;;;;5.35;0.93;;;18.20;68.60;;;;;;7407224;19;20264;-69
2023/01/13 13:24:04;;;;;;;5.40;1.50;;;18.20;68.70;;;;;;7407193;19;19932;-68
2023/01/13 13:26:46;;;;;;;3.25;0.47;;;18.20;68.70;;;;;;7406426;19;19906;-68
2023/01/13 13:29:44;;;;;;;4.88;0.32;;;18.10;68.60;;;;;;7407939;19;19974;-68
2023/01/13 13:32:33;;;;;;;4.88;0.70;;;18.10;68.70;;;;;;7405392;19;19915;-69
2023/01/13 13:35:19;;;;;;;4.57;0.60;;;18.10;68.70;;;;;;7406639;19;20633;-68
2023/01/13 13:49:11;;;;;;;6.38;0.88;;;18.00;68.80;;;;;;7406287;19;19934;-69
2023/01/13 13:51:49;;;;;;;3.25;0.38;;;18.00;68.80;;;;;;7406530;19;20278;-69
2023/01/13 13:54:21;;;;;;;3.63;0.50;;;18.00;68.80;;;;;;7406275;19;19919;-68
2023/01/13 13:56:52;;;;;;;5.78;1.55;;;18.00;68.80;;;;;;7405812;19;19986;-69
2023/01/13 13:59:24;;;;;;;3.72;0.80;;;18.00;68.80;;;;;;7404360;19;19929;-69
2023/01/13 14:02:00;;;;;;;3.40;0.50;;;18.00;68.80;;;;;;7406096;19;19915;-68
2023/01/13 14:04:31;;;;;;;4.65;0.60;;;18.00;68.80;;;;;;7406086;19;19914;-69
2023/01/13 14:07:05;;;;;;;4.00;0.60;;;18.00;68.80;;;;;;7406305;19;19907;-68
2023/01/13 14:09:45;;;;;;;4.95;0.75;;;17.90;68.80;;;;;;7405569;19;19944;-68
2023/01/13 14:12:20;;;;;;;3.15;0.70;;;17.90;68.70;;;;;;7404681;19;19911;-68
2023/01/13 14:14:50;;;;;;;4.75;1.33;;;17.90;68.80;;;;;;7405848;19;19919;-68
2023/01/13 14:17:27;;;;;;;3.67;1.30;;;17.90;68.80;;;;;;7405821;19;20341;-68
2023/01/13 14:20:01;;;;;;;4.15;1.65;;;17.90;68.80;;;;;;7403472;19;19929;-68
2023/01/13 14:22:33;;;;;;;4.82;1.40;;;17.90;68.80;;;;;;7405895;19;19941;-68
2023/01/13 14:25:02;;;;;;;6.75;0.52;;;17.90;68.80;;;;;;7408291;19;19924;-69
2023/01/13 14:27:32;;;;;;;5.22;0.93;;;17.90;68.80;;;;;;7405590;19;19925;-69
2023/01/13 14:30:02;;;;;;;3.67;1.05;;;17.90;68.80;;;;;;7405510;19;19919;-69